Time;durP1;ratioP1;P1;durP2;ratioP2;P2;SDS_P1;SDS_P2;PMS_P1;PMS_P2;Temp;Humidity;BMP_temperature;BMP_pressure;BME280_temperature;BME280_humidity;BME280_pressure;Samples;Min_cycle;Max_cycle;Signal;HPM_P1;HPM_P2
2022/01/12 00:00:25;;;;;;;99.15;32.83;;;;;;;-4.35;100.00;100728.91;4386143;32;20077;-74
2022/01/12 00:03:10;;;;;;;106.15;31.75;;;;;;;-4.38;100.00;100730.81;4384348;32;20451;-76
2022/01/12 00:05:36;;;;;;;105.97;33.63;;;;;;;-4.43;100.00;100722.41;4380119;32;20047;-74
2022/01/12 00:08:04;;;;;;;112.20;31.98;;;;;;;-4.86;100.00;100646.66;4385954;32;20392;-75
2022/01/12 00:10:30;;;;;;;110.68;34.33;;;;;;;-4.46;100.00;100733.16;4385120;32;20337;-74
2022/01/12 00:12:57;;;;;;;118.68;35.92;;;;;;;-4.53;100.00;100716.16;4372592;32;20439;-75
2022/01/12 00:15:24;;;;;;;124.25;34.80;;;;;;;-4.86;100.00;100666.84;4384447;32;20065;-78
2022/01/12 00:17:51;;;;;;;111.12;35.13;;;;;;;-4.77;100.00;100685.41;4376069;32;20393;-75
2022/01/12 00:20:17;;;;;;;114.80;34.40;;;;;;;-4.48;100.00;100719.28;4400940;32;20064;-75
2022/01/12 00:22:44;;;;;;;123.15;37.33;;;;;;;-4.54;100.00;100718.87;4400941;32;20056;-75
2022/01/12 00:33:20;;;;;;;102.07;33.15;;;;;;;-4.60;100.00;100717.53;4386096;32;20050;-75
2022/01/12 00:35:49;;;;;;;118.97;37.10;;;;;;;-5.18;100.00;100625.31;4385822;32;20061;-75
2022/01/12 00:38:18;;;;;;;107.47;34.28;;;;;;;-4.88;100.00;100673.97;4386198;32;20053;-75
2022/01/12 00:40:48;;;;;;;107.07;33.35;;;;;;;-5.18;100.00;100631.41;4384533;32;20065;-78
2022/01/12 00:43:17;;;;;;;107.75;34.60;;;;;;;-4.87;100.00;100671.25;4386116;32;20068;-75
2022/01/12 00:45:46;;;;;;;110.68;35.38;;;;;;;-4.65;100.00;100722.28;4384710;32;20036;-75
2022/01/12 00:48:14;;;;;;;109.63;34.83;;;;;;;-4.86;100.00;100678.19;4385926;32;20069;-75
2022/01/12 00:50:42;;;;;;;106.12;33.33;;;;;;;-4.59;100.00;100716.59;4389321;32;20060;-77
2022/01/12 00:53:09;;;;;;;94.55;31.62;;;;;;;-4.58;100.00;100724.38;4400680;32;20069;-75
2022/01/12 00:55:37;;;;;;;100.85;30.92;;;;;;;-4.63;100.00;100715.13;4387575;32;20042;-76
2022/01/12 00:58:04;;;;;;;93.85;31.40;;;;;;;-4.79;100.00;100684.66;4385996;32;20628;-75
2022/01/12 01:00:31;;;;;;;101.55;31.27;;;;;;;-4.76;100.00;100705.47;4384152;32;20061;-75
2022/01/12 01:02:58;;;;;;;98.78;32.38;;;;;;;-4.65;100.00;100732.81;4382470;32;20470;-76
2022/01/12 01:05:27;;;;;;;106.00;34.03;;;;;;;-4.67;100.00;100732.06;4385312;32;20048;-75
2022/01/12 01:07:54;;;;;;;103.75;31.80;;;;;;;-4.75;100.00;100720.31;4372065;32;20027;-75
2022/01/12 01:10:56;;;;;;;95.82;33.97;;;;;;;-4.76;100.00;100716.00;4384561;32;20039;-75
2022/01/12 01:13:24;;;;;;;110.78;33.65;;;;;;;-4.86;100.00;100699.22;4394361;32;20433;-75
2022/01/12 01:16:01;;;;;;;104.90;30.70;;;;;;;-5.00;100.00;100686.22;4387313;32;20400;-75
2022/01/12 01:26:51;;;;;;;109.85;32.83;;;;;;;-4.85;100.00;100685.13;4385521;32;20046;-75
2022/01/12 01:29:18;;;;;;;124.45;35.65;;;;;;;-5.06;100.00;100642.00;4384055;32;20043;-77
2022/01/12 01:31:46;;;;;;;132.35;38.72;;;;;;;-4.51;100.00;100730.03;4385065;32;20180;-75
2022/01/12 01:34:15;;;;;;;106.95;34.90;;;;;;;-4.52;100.00;100728.31;4385365;32;20371;-75
2022/01/12 01:36:46;;;;;;;134.15;38.65;;;;;;;-4.84;100.00;100684.16;4397244;32;20458;-75
2022/01/12 01:39:17;;;;;;;127.62;36.20;;;;;;;-4.58;100.00;100728.75;4396469;32;20027;-75
2022/01/12 01:41:51;;;;;;;143.65;41.72;;;;;;;-4.61;100.00;100710.59;4400543;32;20050;-75
2022/01/12 01:55:11;;;;;;;128.55;40.72;;;;;;;-4.52;100.00;100725.69;4384694;32;20057;-74
2022/01/12 01:57:40;;;;;;;115.35;39.20;;;;;;;-4.80;100.00;100683.00;4384971;32;20035;-74
2022/01/12 02:00:14;;;;;;;107.95;35.05;;;;;;;-4.85;100.00;100679.00;4384656;32;20034;-76
2022/01/12 02:02:53;;;;;;;126.47;35.78;;;;;;;-4.65;100.00;100711.78;4399958;32;20094;-74
2022/01/12 02:05:20;;;;;;;127.82;39.08;;;;;;;-4.54;100.00;100722.34;4399900;32;20068;-74
2022/01/12 02:07:49;;;;;;;119.20;36.15;;;;;;;-4.52;100.00;100711.72;4399778;32;20030;-74
2022/01/12 02:10:20;;;;;;;90.55;29.77;;;;;;;-4.52;100.00;100707.28;4390516;32;20098;-74
2022/01/12 02:12:56;;;;;;;115.47;36.10;;;;;;;-4.74;100.00;100676.47;4390329;32;20043;-74
2022/01/12 02:15:25;;;;;;;124.05;36.33;;;;;;;-4.80;100.00;100662.00;4391011;32;20092;-74
2022/01/12 02:18:06;;;;;;;124.20;35.60;;;;;;;-4.45;100.00;100719.06;4387763;32;20031;-74
2022/01/12 02:40:31;;;;;;;60.85;20.10;;;;;;;-4.52;100.00;100707.28;4400972;32;20059;-75
2022/01/12 02:51:30;;;;;;;48.78;16.17;;;;;;;-5.42;100.00;100570.13;4385102;32;20047;-74
2022/01/12 02:53:57;;;;;;;45.20;15.77;;;;;;;-4.58;100.00;100705.09;4386592;32;20031;-75
2022/01/12 02:56:29;;;;;;;44.97;16.55;;;;;;;-4.78;100.00;100675.84;4374053;32;20074;-74
2022/01/12 02:58:59;;;;;;;49.83;17.12;;;;;;;-4.55;100.00;100702.25;4385252;32;20084;-74
2022/01/12 03:04:02;;;;;;;44.20;14.05;;;;;;;-4.57;100.00;100710.25;4396825;32;20047;-74
2022/01/12 03:06:34;;;;;;;36.88;13.00;;;;;;;-4.51;100.00;100710.78;4399403;32;20043;-76
2022/01/12 03:09:02;;;;;;;41.25;14.77;;;;;;;-4.76;100.00;100663.44;4385881;32;20051;-75
2022/01/12 03:11:31;;;;;;;45.72;13.32;;;;;;;-4.73;100.00;100666.81;4387222;32;20470;-75
2022/01/12 03:13:59;;;;;;;56.50;16.33;;;;;;;-4.69;100.00;100663.84;4387212;32;20069;-74
2022/01/12 03:16:28;;;;;;;38.50;13.23;;;;;;;-4.61;100.00;100671.16;4385310;32;20047;-75
2022/01/12 03:18:58;;;;;;;35.85;14.77;;;;;;;-4.68;100.00;100669.94;4372148;32;20476;-74
2022/01/12 03:21:28;;;;;;;40.50;15.35;;;;;;;-4.49;100.00;100707.06;4371197;32;20047;-75
2022/01/12 03:23:56;;;;;;;51.60;15.20;;;;;;;-4.79;100.00;100653.13;4386206;32;20082;-76
2022/01/12 03:26:25;;;;;;;42.25;14.65;;;;;;;-4.45;100.00;100702.44;4398459;32;20057;-74
2022/01/12 03:28:54;;;;;;;41.08;14.95;;;;;;;-4.46;100.00;100695.50;4387517;32;20076;-74
2022/01/12 03:31:28;;;;;;;40.55;14.82;;;;;;;-4.64;100.00;100671.37;4372268;32;20074;-74
2022/01/12 03:34:08;;;;;;;37.95;14.65;;;;;;;-4.71;100.00;100659.62;4386782;32;20039;-74
2022/01/12 03:39:08;;;;;;;39.58;14.38;;;;;;;-4.89;100.00;100657.37;4386506;32;20436;-74
2022/01/12 03:41:39;;;;;;;43.65;13.75;;;;;;;-4.76;100.00;100663.44;4389237;32;20038;-75
2022/01/12 03:44:08;;;;;;;50.60;13.57;;;;;;;-4.55;100.00;100691.75;4387421;32;20081;-75
2022/01/12 03:46:44;;;;;;;42.50;14.93;;;;;;;-4.51;100.00;100698.47;4392915;32;20961;-74
2022/01/12 03:49:12;;;;;;;50.00;15.30;;;;;;;-4.42;100.00;100704.84;4394732;32;20038;-74
2022/01/12 03:51:39;;;;;;;49.72;16.10;;;;;;;-4.83;100.00;100649.06;4386301;32;20400;-74
2022/01/12 03:54:14;;;;;;;48.90;14.38;;;;;;;-4.71;100.00;100667.53;4398385;32;20054;-74
2022/01/12 03:56:41;;;;;;;42.20;15.43;;;;;;;-4.46;100.00;100706.84;4394626;32;20424;-74
2022/01/12 03:59:08;;;;;;;38.50;14.87;;;;;;;-4.65;100.00;100681.06;4386745;32;20035;-74
2022/01/12 04:01:37;;;;;;;46.63;15.82;;;;;;;-4.46;100.00;100712.13;4393993;32;20068;-74
2022/01/12 04:04:09;;;;;;;36.28;12.37;;;;;;;-4.58;100.00;100682.31;4398212;32;20066;-74
2022/01/12 04:09:22;;;;;;;39.70;13.57;;;;;;;-4.42;100.00;100703.06;4384807;32;20336;-76
2022/01/12 04:11:48;;;;;;;44.17;14.52;;;;;;;-4.67;100.00;100658.47;4392985;32;20046;-74
2022/01/12 04:14:15;;;;;;;43.90;15.98;;;;;;;-4.40;100.00;100695.91;4392410;32;20387;-75
2022/01/12 04:16:42;;;;;;;59.40;18.12;;;;;;;-4.39;100.00;100697.59;4386581;32;20046;-75
2022/01/12 04:19:08;;;;;;;44.53;16.35;;;;;;;-4.30;100.00;100705.75;4385102;32;20360;-74
2022/01/12 04:21:46;;;;;;;46.35;17.05;;;;;;;-4.53;100.00;100662.72;4382855;32;20070;-76
2022/01/12 04:24:13;;;;;;;59.28;20.48;;;;;;;-4.33;100.00;100700.72;4385962;32;20161;-74
2022/01/12 04:26:41;;;;;;;62.70;21.52;;;;;;;-4.56;100.00;100663.78;4386113;32;20031;-74
2022/01/12 04:29:07;;;;;;;68.10;20.25;;;;;;;-4.30;100.00;100700.50;4387364;32;20120;-74
2022/01/12 04:31:35;;;;;;;67.93;22.40;;;;;;;-4.43;100.00;100706.62;4399009;32;20042;-75
2022/01/12 04:34:03;;;;;;;66.97;23.62;;;;;;;-4.44;100.00;100710.19;4400687;32;20323;-74
2022/01/12 04:36:30;;;;;;;65.93;23.83;;;;;;;-4.46;100.00;100706.84;4399745;32;20064;-74
2022/01/12 04:38:57;;;;;;;71.12;23.42;;;;;;;-4.49;100.00;100701.81;4381134;32;20057;-74
2022/01/12 04:41:24;;;;;;;75.60;20.80;;;;;;;-4.55;100.00;100697.00;4385016;32;20061;-75
2022/01/12 04:43:52;;;;;;;80.87;20.98;;;;;;;-5.04;100.00;100622.56;4389452;32;20092;-74
2022/01/12 04:46:29;;;;;;;58.22;20.00;;;;;;;-4.62;100.00;100701.87;4387267;32;20046;-74
2022/01/12 04:49:23;;;;;;;60.65;19.75;;;;;;;-4.84;100.00;100665.78;4386488;32;20390;-74
2022/01/12 04:51:51;;;;;;;58.87;19.45;;;;;;;-4.56;100.00;100700.59;4385132;32;20040;-74
2022/01/12 04:54:18;;;;;;;58.70;17.73;;;;;;;-4.61;100.00;100697.44;4397421;32;20061;-74
2022/01/12 04:56:45;;;;;;;61.65;20.55;;;;;;;-4.67;100.00;100693.47;4386380;32;20408;-74
2022/01/12 04:59:12;;;;;;;56.30;18.40;;;;;;;-4.57;100.00;100701.53;4383187;32;20082;-74
2022/01/12 05:01:48;;;;;;;56.55;18.80;;;;;;;-4.65;100.00;100696.81;4385579;32;20077;-74
2022/01/12 05:15:01;;;;;;;47.60;17.25;;;;;;;-4.72;100.00;100652.69;4388445;32;20059;-74
2022/01/12 05:17:28;;;;;;;44.70;15.63;;;;;;;-4.81;100.00;100683.94;4379878;32;20413;-74
2022/01/12 05:19:56;;;;;;;60.95;20.12;;;;;;;-4.69;100.00;100694.53;4397734;32;20060;-76
2022/01/12 05:22:22;;;;;;;53.97;18.25;;;;;;;-4.98;100.00;100642.28;4386524;32;20041;-73
2022/01/12 05:24:50;;;;;;;56.03;19.35;;;;;;;-4.89;100.00;100649.50;4400335;32;20106;-73
2022/01/12 05:27:17;;;;;;;53.05;17.20;;;;;;;-4.53;100.00;100694.25;4399792;32;20344;-73
2022/01/12 05:29:44;;;;;;;60.17;19.17;;;;;;;-4.51;100.00;100687.94;4397821;32;20043;-74
2022/01/12 05:32:10;;;;;;;49.55;15.60;;;;;;;-4.71;100.00;100644.69;4384389;32;20061;-74
2022/01/12 05:34:39;;;;;;;56.90;16.02;;;;;;;-4.40;100.00;100688.00;4372665;32;20043;-74
2022/01/12 05:37:05;;;;;;;57.60;16.25;;;;;;;-4.40;100.00;100695.06;4384261;32;20452;-74
2022/01/12 05:39:32;;;;;;;50.53;15.65;;;;;;;-4.55;100.00;100675.97;4384584;32;20360;-74
2022/01/12 05:41:59;;;;;;;41.05;16.37;;;;;;;-4.51;100.00;100685.31;4373567;32;20057;-76
2022/01/12 05:44:26;;;;;;;51.63;18.60;;;;;;;-4.61;100.00;100692.19;4394519;32;20051;-74
2022/01/12 05:46:54;;;;;;;55.50;16.05;;;;;;;-4.89;100.00;100636.38;4389485;32;20392;-73
2022/01/12 05:49:34;;;;;;;52.58;15.60;;;;;;;-4.51;100.00;100703.72;4389262;32;20142;-73
2022/01/12 05:52:03;;;;;;;47.45;15.63;;;;;;;-4.57;100.00;100698.91;4387216;32;20061;-73
2022/01/12 05:54:30;;;;;;;47.65;16.20;;;;;;;-4.67;100.00;100703.16;4391703;32;20069;-74
2022/01/12 05:56:57;;;;;;;46.67;18.55;;;;;;;-4.71;100.00;100686.75;4402599;32;20068;-72
2022/01/12 05:59:23;;;;;;;45.35;16.87;;;;;;;-4.73;100.00;100703.59;4399032;32;20050;-73
2022/01/12 06:01:51;;;;;;;53.58;16.05;;;;;;;-5.08;100.00;100664.91;4391659;32;20047;-80
2022/01/12 06:04:18;;;;;;;55.85;16.75;;;;;;;-4.75;100.00;100701.91;4389070;32;20065;-73
2022/01/12 06:06:46;;;;;;;53.22;17.17;;;;;;;-4.60;100.00;100707.00;4392754;32;20058;-72
2022/01/12 06:09:12;;;;;;;52.38;18.37;;;;;;;-4.86;100.00;100665.06;4397017;32;20153;-73
2022/01/12 06:11:40;;;;;;;56.80;20.15;;;;;;;-4.60;100.00;100707.84;4397129;32;20137;-72
2022/01/12 06:14:07;;;;;;;50.78;19.00;;;;;;;-4.78;100.00;100702.13;4401486;32;20078;-75
2022/01/12 06:16:34;;;;;;;49.38;18.40;;;;;;;-4.77;100.00;100703.81;4401960;32;20090;-72
2022/01/12 06:19:01;;;;;;;52.03;20.12;;;;;;;-4.75;100.00;100688.78;4390218;32;20411;-72
2022/01/12 06:21:28;;;;;;;53.75;18.02;;;;;;;-4.98;100.00;100653.63;4392463;32;20097;-73
2022/01/12 06:23:55;;;;;;;61.35;20.77;;;;;;;-4.69;100.00;100720.81;4391938;32;20050;-72
2022/01/12 06:26:25;;;;;;;67.97;21.10;;;;;;;-4.65;100.00;100703.88;4391913;32;20311;-72
2022/01/12 06:31:38;;;;;;;61.55;19.10;;;;;;;-5.02;100.00;100640.84;4388246;32;20191;-74
2022/01/12 06:34:05;;;;;;;63.28;18.45;;;;;;;-4.73;100.00;100687.81;4394953;32;20105;-72
2022/01/12 06:36:31;;;;;;;65.10;21.58;;;;;;;-4.53;100.00;100724.03;4393562;32;20040;-73
2022/01/12 06:38:58;;;;;;;59.40;19.75;;;;;;;-4.58;100.00;100707.72;4396860;32;20413;-72
2022/01/12 06:41:27;;;;;;;51.45;18.75;;;;;;;-4.44;100.00;100720.72;4396479;32;20077;-73
2022/01/12 06:43:54;;;;;;;53.63;18.02;;;;;;;-4.46;100.00;100704.22;4392570;32;20051;-74
2022/01/12 06:46:28;;;;;;;40.85;16.00;;;;;;;-4.68;100.00;100686.53;4398419;32;20064;-73
2022/01/12 06:48:54;;;;;;;47.70;15.43;;;;;;;-4.64;100.00;100692.41;4392704;32;20235;-77
2022/01/12 06:51:21;;;;;;;38.97;13.93;;;;;;;-4.36;100.00;100743.00;4401521;32;20072;-73
2022/01/12 06:53:48;;;;;;;44.90;15.50;;;;;;;-4.58;100.00;100734.03;4398170;32;20150;-73
2022/01/12 06:56:17;;;;;;;37.88;14.77;;;;;;;-4.84;100.00;100707.81;4397398;32;20076;-72
2022/01/12 06:58:44;;;;;;;48.38;16.80;;;;;;;-4.71;100.00;100735.84;4390899;32;20042;-74
2022/01/12 07:01:11;;;;;;;54.63;16.70;;;;;;;-4.70;100.00;100729.66;4393235;32;20384;-73
2022/01/12 07:03:39;;;;;;;55.50;18.65;;;;;;;-4.68;100.00;100723.34;4395822;32;20403;-73
2022/01/12 07:06:06;;;;;;;60.28;19.40;;;;;;;-4.53;100.00;100737.19;4397671;32;21301;-73
2022/01/12 07:08:34;;;;;;;50.22;19.73;;;;;;;-4.52;100.00;100744.09;4395829;32;20096;-73
2022/01/12 07:11:02;;;;;;;58.40;22.08;;;;;;;-4.61;100.00;100735.09;4393247;32;20054;-73
2022/01/12 07:13:28;;;;;;;57.72;18.70;;;;;;;-4.62;100.00;100745.72;4380708;32;20043;-75
2022/01/12 07:15:56;;;;;;;55.20;17.15;;;;;;;-4.80;100.00;100704.03;4393263;32;20065;-73
2022/01/12 07:18:25;;;;;;;53.78;18.73;;;;;;;-4.57;100.00;100748.84;4388283;32;20058;-73
2022/01/12 07:20:52;;;;;;;63.72;19.35;;;;;;;-4.63;100.00;100736.16;4385953;32;20095;-73
2022/01/12 07:23:18;;;;;;;63.08;23.27;;;;;;;-4.50;100.00;100752.75;4378441;32;20082;-76
2022/01/12 07:25:45;;;;;;;70.00;19.23;;;;;;;-4.60;100.00;100734.12;4371267;32;20023;-73
2022/01/12 07:28:12;;;;;;;84.22;26.52;;;;;;;-4.80;100.00;100711.09;4391311;32;20799;-74
2022/01/12 07:30:38;;;;;;;63.45;19.42;;;;;;;-4.87;100.00;100702.78;4398784;32;20043;-74
2022/01/12 07:33:05;;;;;;;85.62;26.50;;;;;;;-4.58;100.00;100753.28;4400331;32;20441;-74
2022/01/12 07:35:32;;;;;;;64.05;22.50;;;;;;;-4.58;100.00;100731.41;4394862;32;20068;-76
2022/01/12 07:37:58;;;;;;;63.53;21.83;;;;;;;-4.46;100.00;100733.16;4398571;32;20076;-74
2022/01/12 07:40:25;;;;;;;61.75;21.05;;;;;;;-4.52;100.00;100709.94;4397479;32;20699;-73
2022/01/12 07:42:52;;;;;;;80.62;27.20;;;;;;;-4.29;100.00;100721.41;4386436;32;20075;-73
2022/01/12 07:45:19;;;;;;;99.72;34.00;;;;;;;-4.16;100.00;100723.12;4373111;32;20463;-73
2022/01/12 07:47:45;;;;;;;76.18;23.85;;;;;;;-4.25;100.00;100714.13;4383609;32;20039;-74
2022/01/12 07:50:13;;;;;;;70.03;23.15;;;;;;;-4.15;100.00;100746.69;4386419;32;20108;-74
2022/01/12 07:52:40;;;;;;;79.32;25.67;;;;;;;-4.11;100.00;100753.41;4386252;32;20039;-73
2022/01/12 07:55:07;;;;;;;102.15;36.15;;;;;;;-4.30;100.00;100716.25;4386151;32;20039;-73
2022/01/12 07:57:34;;;;;;;96.20;35.85;;;;;;;-3.97;100.00;100757.69;4385300;32;20489;-74
2022/01/12 08:00:00;;;;;;;81.40;26.48;;;;;;;-3.91;100.00;100748.47;4385742;32;20492;-75
2022/01/12 08:02:27;;;;;;;66.28;25.98;;;;;;;-3.92;100.00;100744.19;4386020;32;20055;-73
2022/01/12 08:04:53;;;;;;;79.47;25.40;;;;;;;-3.91;100.00;100732.69;4372555;32;20065;-73
2022/01/12 08:07:20;;;;;;;71.20;21.08;;;;;;;-3.94;100.00;100706.59;4386494;32;20349;-73
2022/01/12 08:09:46;;;;;;;54.67;19.87;;;;;;;-4.10;100.00;100697.22;4383109;32;20061;-77
2022/01/12 08:12:13;;;;;;;59.15;20.20;;;;;;;-4.52;100.00;100662.59;4386472;32;20069;-73
2022/01/12 08:14:40;;;;;;;64.50;23.20;;;;;;;-3.99;100.00;100730.62;4386631;32;20039;-75
2022/01/12 08:17:06;;;;;;;49.60;17.58;;;;;;;-3.83;100.00;100735.56;4386882;32;20073;-73
2022/01/12 08:19:37;;;;;;;70.53;21.80;;;;;;;-3.94;100.00;100746.91;4386230;32;20491;-74
2022/01/12 08:22:05;;;;;;;61.88;20.00;;;;;;;-3.87;100.00;100744.66;4384911;32;20061;-74
2022/01/12 08:24:31;;;;;;;58.90;17.80;;;;;;;-3.96;100.00;100759.34;4385725;32;20046;-74
2022/01/12 08:26:58;;;;;;;61.97;21.48;;;;;;;-3.89;100.00;100757.12;4385345;32;20039;-74
2022/01/12 08:29:27;;;;;;;60.58;20.10;;;;;;;-3.86;100.00;100764.75;4384806;32;20057;-74
2022/01/12 08:31:55;;;;;;;52.50;19.45;;;;;;;-3.87;100.00;100755.19;4384319;32;20062;-74
2022/01/12 08:34:22;;;;;;;55.83;19.90;;;;;;;-4.32;100.00;100713.75;4383625;32;20085;-74
2022/01/12 08:36:49;;;;;;;55.15;18.73;;;;;;;-4.23;100.00;100728.00;4370959;32;20032;-74
2022/01/12 08:39:15;;;;;;;54.05;15.77;;;;;;;-4.32;100.00;100718.16;4385874;32;20040;-77
2022/01/12 08:41:42;;;;;;;54.03;19.25;;;;;;;-4.45;100.00;100703.28;4372497;32;20423;-77
2022/01/12 08:44:09;;;;;;;54.95;16.83;;;;;;;-4.60;100.00;100699.13;4382269;32;20120;-74
2022/01/12 08:46:38;;;;;;;46.60;17.85;;;;;;;-4.28;100.00;100738.03;4372338;32;20940;-74
2022/01/12 08:49:05;;;;;;;69.10;20.67;;;;;;;-4.25;100.00;100714.13;4385696;32;20082;-74
2022/01/12 08:51:31;;;;;;;57.92;20.52;;;;;;;-4.26;100.00;100733.47;4385546;32;20416;-75
2022/01/12 08:53:58;;;;;;;56.35;18.60;;;;;;;-4.33;100.00;100716.50;4383558;32;20030;-74
2022/01/12 08:56:25;;;;;;;82.32;23.42;;;;;;;-4.39;100.00;100721.25;4384259;32;20061;-75
2022/01/12 08:58:51;;;;;;;54.45;19.10;;;;;;;-4.27;100.00;100734.47;4372856;32;20820;-74
2022/01/12 09:01:18;;;;;;;93.87;27.50;;;;;;;-4.25;100.00;100735.19;4390152;32;20406;-74
2022/01/12 09:03:48;;;;;;;62.10;20.60;;;;;;;-4.27;100.00;100721.31;4384152;32;20360;-74
2022/01/12 09:06:19;;;;;;;61.47;21.95;;;;;;;-4.23;100.00;100728.00;4357247;32;20056;-75
2022/01/12 09:08:46;;;;;;;63.28;21.65;;;;;;;-4.18;100.00;100725.88;4371143;32;20053;-73
2022/01/12 09:11:13;;;;;;;68.50;23.15;;;;;;;-4.33;100.00;100690.19;4371930;32;20034;-73
2022/01/12 09:13:40;;;;;;;58.60;20.73;;;;;;;-4.08;100.00;100716.34;4385583;32;20158;-73
2022/01/12 09:16:08;;;;;;;83.62;24.87;;;;;;;-4.10;100.00;100728.81;4385550;32;20057;-73
2022/01/12 09:18:39;;;;;;;63.38;21.95;;;;;;;-4.15;100.00;100725.66;4383133;32;20043;-74
2022/01/12 09:21:07;;;;;;;68.68;21.83;;;;;;;-4.52;100.00;100659.97;4384903;32;20043;-74
2022/01/12 09:23:34;;;;;;;53.63;20.50;;;;;;;-4.29;100.00;100707.41;4370685;32;20053;-74
2022/01/12 09:26:03;;;;;;;74.78;23.48;;;;;;;-4.43;100.00;100666.34;4361572;32;20428;-74
2022/01/12 09:28:32;;;;;;;68.82;20.67;;;;;;;-4.28;100.00;100703.84;4397944;32;20069;-74
2022/01/12 09:30:59;;;;;;;68.30;23.17;;;;;;;-4.47;100.00;100673.63;4393522;32;20035;-73
2022/01/12 09:33:25;;;;;;;64.55;24.58;;;;;;;-4.23;100.00;100707.81;4395783;32;20466;-74
2022/01/12 09:35:53;;;;;;;65.85;22.77;;;;;;;-4.51;100.00;100645.06;4386476;32;20513;-74
2022/01/12 09:38:21;;;;;;;54.10;21.70;;;;;;;-4.25;100.00;100672.03;4398317;32;20064;-76
2022/01/12 09:40:52;;;;;;;65.90;20.27;;;;;;;-4.01;100.00;100712.31;4386413;32;20051;-74
2022/01/12 09:43:19;;;;;;;68.85;25.35;;;;;;;-3.96;100.00;100719.03;4387029;32;20053;-74
2022/01/12 09:45:49;;;;;;;64.10;22.30;;;;;;;-4.12;100.00;100721.97;4399698;32;20035;-74
2022/01/12 09:48:19;;;;;;;80.45;26.45;;;;;;;-4.44;100.00;100662.03;4385642;32;20408;-77
2022/01/12 09:50:46;;;;;;;60.75;21.80;;;;;;;-4.38;100.00;100688.72;4395252;32;20069;-74
2022/01/12 09:53:12;;;;;;;81.43;24.45;;;;;;;-4.28;100.00;100701.22;4385347;32;20125;-74
2022/01/12 09:55:39;;;;;;;78.12;27.00;;;;;;;-4.16;100.00;100695.03;4371115;32;20417;-73
2022/01/12 09:58:06;;;;;;;77.35;24.65;;;;;;;-4.31;100.00;100657.53;4382936;32;20035;-72
2022/01/12 10:03:22;;;;;;;74.65;24.50;;;;;;;-4.24;100.00;100689.53;4384607;32;20039;-73
2022/01/12 10:05:56;;;;;;;82.75;26.15;;;;;;;-4.06;100.00;100698.66;4383325;32;20117;-73
2022/01/12 10:08:41;;;;;;;82.05;24.90;;;;;;;-4.08;100.00;100687.41;4386544;32;20069;-74
2022/01/12 10:11:17;;;;;;;73.53;23.67;;;;;;;-3.96;100.00;100692.72;4373119;32;20437;-76
2022/01/12 10:14:06;;;;;;;78.43;23.48;;;;;;;-3.88;100.00;100692.97;4384127;32;20061;-73
2022/01/12 10:20:19;;;;;;;72.37;23.95;;;;;;;-4.08;100.00;100691.84;4313508;31;20066;-75
2022/01/12 10:23:07;;;;;;;72.68;24.73;;;;;;;-4.11;100.00;100692.91;4341292;33;20048;-73
2022/01/12 10:25:45;;;;;;;68.15;24.12;;;;;;;-3.98;100.00;100690.19;4340656;33;20097;-74
2022/01/12 10:28:22;;;;;;;72.28;27.33;;;;;;;-4.13;100.00;100650.09;4341486;33;20341;-73
2022/01/12 10:30:57;;;;;;;77.53;25.27;;;;;;;-3.73;100.00;100694.47;4340257;33;20074;-73
2022/01/12 10:33:27;;;;;;;77.40;25.05;;;;;;;-4.14;100.00;100648.41;4340960;33;20171;-73
2022/01/12 10:36:00;;;;;;;70.93;24.70;;;;;;;-4.10;100.00;100639.34;4345389;33;20056;-74
2022/01/12 10:38:30;;;;;;;76.85;22.70;;;;;;;-3.89;100.00;100688.69;4346019;33;20036;-73
2022/01/12 10:41:02;;;;;;;78.32;24.70;;;;;;;-4.70;100.00;100556.19;4340957;33;20386;-74
2022/01/12 10:43:44;;;;;;;83.93;23.83;;;;;;;-3.80;100.00;100708.19;4342375;32;20044;-73
2022/01/12 10:46:14;;;;;;;81.63;22.65;;;;;;;-3.76;100.00;100694.69;4342779;33;20036;-74
2022/01/12 10:48:43;;;;;;;75.47;27.40;;;;;;;-3.81;100.00;100681.03;4342828;33;20046;-74
2022/01/12 10:51:11;;;;;;;74.90;25.83;;;;;;;-3.91;100.00;100643.19;4340202;33;20062;-75
2022/01/12 10:53:39;;;;;;;78.55;27.65;;;;;;;-3.82;100.00;100647.78;4342033;33;20545;-75
2022/01/12 10:56:10;;;;;;;70.35;26.08;;;;;;;-3.79;100.00;100642.28;4342541;33;20428;-74
2022/01/12 10:58:40;;;;;;;62.80;22.73;;;;;;;-3.72;100.00;100680.34;4342635;33;20207;-74
2022/01/12 11:01:09;;;;;;;78.80;24.35;;;;;;;-3.71;100.00;100663.56;4338399;33;20091;-75
2022/01/12 11:03:35;;;;;;;76.65;26.37;;;;;;;-3.88;100.00;100627.19;4341983;33;20044;-74
2022/01/12 11:06:02;;;;;;;63.50;24.45;;;;;;;-3.72;100.00;100668.97;4342061;33;20065;-75
2022/01/12 11:08:30;;;;;;;67.47;24.17;;;;;;;-3.57;100.00;100674.87;4341194;33;20037;-76
2022/01/12 11:10:59;;;;;;;87.95;27.40;;;;;;;-3.81;100.00;100623.13;4340432;33;20069;-76
2022/01/12 11:13:30;;;;;;;75.65;26.85;;;;;;;-3.47;100.00;100652.12;4342780;33;20194;-75
2022/01/12 11:15:58;;;;;;;77.20;27.67;;;;;;;-3.46;100.00;100648.53;4342528;33;20071;-75
2022/01/12 11:18:28;;;;;;;74.75;25.67;;;;;;;-3.36;100.00;100654.75;4346776;33;20061;-74
2022/01/12 11:21:34;;;;;;;82.32;27.95;;;;;;;-3.15;100.00;100656.66;4355343;32;20065;-77
2022/01/12 11:24:04;;;;;;;62.97;21.58;;;;;;;-3.28;100.00;100647.09;4330926;33;20333;-74
2022/01/12 11:26:32;;;;;;;87.37;28.90;;;;;;;-3.77;100.00;100613.19;4353469;32;20046;-74
2022/01/12 11:28:59;;;;;;;84.65;29.20;;;;;;;-3.35;100.00;100651.19;4341650;32;20079;-75
2022/01/12 11:31:35;;;;;;;81.40;28.05;;;;;;;-3.35;100.00;100645.91;4342221;33;20066;-74
2022/01/12 11:34:01;;;;;;;84.95;28.40;;;;;;;-3.41;100.00;100649.00;4348912;32;20069;-74
2022/01/12 11:36:38;;;;;;;76.47;27.70;;;;;;;-3.38;100.00;100655.81;4346721;32;20036;-74
2022/01/12 11:39:08;;;;;;;86.00;28.85;;;;;;;-3.45;100.00;100650.19;4346949;32;20077;-74
2022/01/12 11:41:38;;;;;;;71.30;25.20;;;;;;;-3.55;100.00;100651.88;4349817;32;20036;-75
2022/01/12 11:44:07;;;;;;;106.45;34.53;;;;;;;-3.67;100.00;100648.38;4353269;32;20070;-74
2022/01/12 11:46:44;;;;;;;84.43;33.50;;;;;;;-3.55;100.00;100649.25;4329628;32;20050;-75
2022/01/12 11:49:12;;;;;;;87.25;31.10;;;;;;;-3.37;100.00;100620.63;4343142;32;20032;-75
2022/01/12 11:51:40;;;;;;;96.12;34.25;;;;;;;-3.39;100.00;100633.09;4347906;32;20036;-74
2022/01/12 11:54:09;;;;;;;93.28;33.40;;;;;;;-3.61;100.00;100589.16;4355438;32;20036;-78
2022/01/12 11:56:38;;;;;;;116.05;40.38;;;;;;;-3.47;100.00;100620.50;4356104;32;20308;-75
2022/01/12 11:59:07;;;;;;;104.07;35.28;;;;;;;-3.34;100.00;100612.50;4356518;32;20364;-74
2022/01/12 12:01:48;;;;;;;123.90;40.97;;;;;;;-3.41;100.00;100619.22;4350459;32;20040;-74
2022/01/12 12:04:30;;;;;;;93.45;33.13;;;;;;;-3.52;100.00;100612.16;4339631;33;20032;-76
2022/01/12 12:07:07;;;;;;;98.97;33.75;;;;;;;-3.24;100.00;100604.69;4342403;33;20080;-74
2022/01/12 12:09:53;;;;;;;95.95;34.78;;;;;;;-3.33;100.00;100570.22;4342021;33;20388;-75
2022/01/12 12:12:32;;;;;;;113.07;37.60;;;;;;;-3.39;100.00;100581.25;4341739;33;20048;-75
2022/01/12 12:15:01;;;;;;;107.45;37.10;;;;;;;-3.21;100.00;100583.38;4344873;32;20070;-75
2022/01/12 12:17:29;;;;;;;130.37;40.55;;;;;;;-2.79;100.00;100625.72;4348073;32;20168;-75
2022/01/12 12:19:57;;;;;;;123.90;39.78;;;;;;;-2.82;100.00;100625.97;4344134;32;20065;-77
2022/01/12 12:22:32;;;;;;;110.82;41.03;;;;;;;-2.69;100.00;100625.78;4349075;32;20039;-74
2022/01/12 12:25:03;;;;;;;110.28;40.05;;;;;;;-3.26;100.00;100580.28;4335214;32;20337;-74
2022/01/12 12:27:32;;;;;;;115.43;39.50;;;;;;;-3.26;100.00;100569.75;4348065;32;20058;-76
2022/01/12 12:29:59;;;;;;;128.40;42.20;;;;;;;-3.27;100.00;100558.38;4345372;32;20031;-75
2022/01/12 12:32:41;;;;;;;114.05;35.55;;;;;;;-3.01;100.00;100608.97;4347330;32;20374;-74